Time;durP1;ratioP1;P1;durP2;ratioP2;P2;SDS_P1;SDS_P2;PMS_P1;PMS_P2;Temp;Humidity;BMP_temperature;BMP_pressure;BME280_temperature;BME280_humidity;BME280_pressure;Samples;Min_cycle;Max_cycle;Signal;HPM_P1;HPM_P2
2023/10/17 00:01:25;;;;;;;4.17;2.63;;;;;;;8.55;100.00;102157.66;6174761;28;20237;-70
2023/10/17 00:04:46;;;;;;;3.53;2.40;;;;;;;8.57;100.00;102163.78;6186347;28;20226;-70
2023/10/17 00:08:09;;;;;;;2.27;2.07;;;;;;;8.56;100.00;102162.06;6187524;28;20291;-71
2023/10/17 00:11:40;;;;;;;3.17;2.20;;;;;;;8.49;100.00;102158.84;6179810;28;20233;-71
2023/10/17 00:15:09;;;;;;;2.50;2.30;;;;;;;8.57;100.00;102161.09;6180931;28;20234;-70
2023/10/17 00:18:31;;;;;;;5.30;3.57;;;;;;;8.61;100.00;102159.97;6185382;28;20237;-71
2023/10/17 00:21:52;;;;;;;3.77;3.20;;;;;;;8.58;100.00;102152.94;6182834;28;20221;-71
2023/10/17 00:25:17;;;;;;;5.20;3.60;;;;;;;8.61;100.00;102159.97;6172927;28;20780;-69
2023/10/17 00:28:38;;;;;;;6.43;2.87;;;;;;;8.65;100.00;102153.44;6177238;28;20805;-70
2023/10/17 00:31:59;;;;;;;2.73;2.40;;;;;;;8.73;100.00;102153.84;6183262;28;20238;-70
2023/10/17 00:35:20;;;;;;;6.17;2.90;;;;;;;8.77;100.00;102155.38;6181018;28;20222;-71
2023/10/17 00:38:43;;;;;;;3.00;2.17;;;;;;;8.74;100.00;102155.59;6184119;28;20230;-69
2023/10/17 00:45:47;;;;;;;3.07;2.37;;;;;;;8.77;100.00;102136.56;6176447;28;20253;-69
2023/10/17 00:49:10;;;;;;;4.23;2.60;;;;;;;8.75;100.00;102144.72;6179943;28;20233;-70
2023/10/17 00:52:34;;;;;;;3.60;2.50;;;;;;;8.70;100.00;102144.13;6182653;28;20234;-70
2023/10/17 00:55:56;;;;;;;3.70;2.47;;;;;;;8.72;100.00;102139.53;6183615;28;20233;-69
2023/10/17 00:59:22;;;;;;;4.33;2.40;;;;;;;8.70;100.00;102135.19;6178145;28;20225;-70
2023/10/17 01:02:46;;;;;;;2.63;2.13;;;;;;;8.60;100.00;102131.34;6178032;28;20257;-69
2023/10/17 01:06:21;;;;;;;2.87;2.67;;;;;;;8.56;100.00;102133.34;6189599;28;20514;-71
2023/10/17 01:09:47;;;;;;;2.63;2.40;;;;;;;8.60;100.00;102115.22;6168479;28;20655;-69
2023/10/17 01:13:08;;;;;;;5.07;2.67;;;;;;;8.47;100.00;102117.78;6185615;28;20230;-70
2023/10/17 01:16:34;;;;;;;2.90;2.60;;;;;;;8.52;100.00;102120.19;6183047;28;20269;-71
2023/10/17 01:19:57;;;;;;;3.07;2.37;;;;;;;8.56;100.00;102119.06;6182570;28;20238;-70
2023/10/17 01:23:18;;;;;;;6.03;3.27;;;;;;;8.53;100.00;102125.47;6173890;28;20226;-70
2023/10/17 01:26:45;;;;;;;2.87;2.20;;;;;;;8.52;100.00;102121.06;6179887;28;20262;-70
2023/10/17 01:30:07;;;;;;;3.97;2.10;;;;;;;8.43;100.00;102128.78;6186030;28;20591;-71
2023/10/17 01:33:30;;;;;;;3.20;3.00;;;;;;;8.37;100.00;102126.47;6177040;28;20218;-71
2023/10/17 01:36:50;;;;;;;3.70;2.87;;;;;;;8.36;100.00;102119.41;6181125;28;20233;-71
2023/10/17 01:40:19;;;;;;;4.57;2.43;;;;;;;8.34;100.00;102124.00;6188475;28;20253;-71
2023/10/17 01:43:45;;;;;;;2.23;2.10;;;;;;;8.35;100.00;102123.03;6193898;28;20240;-69
2023/10/17 01:47:07;;;;;;;4.20;3.07;;;;;;;8.29;100.00;102126.94;6183126;28;20284;-69
2023/10/17 01:50:29;;;;;;;2.87;2.63;;;;;;;8.34;100.00;102119.50;6177651;28;20230;-70
2023/10/17 01:53:51;;;;;;;3.17;2.30;;;;;;;8.31;100.00;102121.47;6185704;28;20609;-70
2023/10/17 01:57:12;;;;;;;3.33;2.80;;;;;;;8.26;100.00;102124.44;6184142;28;20234;-70
2023/10/17 02:00:38;;;;;;;2.53;2.10;;;;;;;8.28;100.00;102129.72;6192277;28;20229;-70
2023/10/17 02:04:02;;;;;;;3.90;3.37;;;;;;;8.21;100.00;102122.94;6187625;28;20222;-72
2023/10/17 02:07:24;;;;;;;3.17;2.87;;;;;;;8.23;100.00;102121.91;6184106;28;20356;-71
2023/10/17 02:10:47;;;;;;;3.67;2.60;;;;;;;8.24;100.00;102120.94;6195710;28;20238;-70
2023/10/17 02:14:09;;;;;;;4.00;3.67;;;;;;;8.22;100.00;102116.63;6181245;28;20821;-71
2023/10/17 02:17:31;;;;;;;3.20;3.00;;;;;;;8.26;100.00;102107.47;6183033;28;20596;-71
2023/10/17 02:20:52;;;;;;;4.43;2.53;;;;;;;8.11;100.00;102111.91;6185307;28;20259;-69
2023/10/17 02:24:13;;;;;;;2.93;2.63;;;;;;;8.06;100.00;102116.66;6188210;28;20233;-70
2023/10/17 02:27:38;;;;;;;3.43;2.47;;;;;;;8.05;100.00;102126.53;6183229;28;20620;-71
2023/10/17 02:30:59;;;;;;;2.80;2.60;;;;;;;8.06;100.00;102130.97;6185907;28;20407;-70
2023/10/17 02:34:22;;;;;;;2.33;2.13;;;;;;;8.11;100.00;102136.06;6186043;28;20631;-70
2023/10/17 02:37:44;;;;;;;3.60;2.23;;;;;;;8.11;100.00;102132.50;6182572;28;20233;-70
2023/10/17 02:41:08;;;;;;;3.70;3.40;;;;;;;8.11;100.00;102129.81;6183883;28;20234;-71
2023/10/17 02:44:31;;;;;;;3.27;2.97;;;;;;;8.16;100.00;102130.41;6181342;28;20241;-72
2023/10/17 02:47:53;;;;;;;3.63;2.70;;;;;;;8.12;100.00;102135.09;6187305;28;20230;-69
2023/10/17 02:51:32;;;;;;;3.93;3.00;;;;;;;8.08;100.00;102134.41;6183872;28;20233;-70
2023/10/17 02:54:57;;;;;;;5.87;3.33;;;;;;;8.17;100.00;102129.47;6181645;28;20576;-70
2023/10/17 02:58:18;;;;;;;3.47;3.17;;;;;;;8.20;100.00;102131.97;6187214;28;20238;-71
2023/10/17 03:01:40;;;;;;;3.70;2.37;;;;;;;8.14;100.00;102137.69;6181200;28;20238;-70
2023/10/17 03:05:05;;;;;;;3.77;3.30;;;;;;;8.15;100.00;102134.06;6198217;28;20241;-70
2023/10/17 03:08:29;;;;;;;5.43;2.83;;;;;;;8.19;100.00;102138.28;6183896;28;20533;-70
2023/10/17 03:11:57;;;;;;;3.70;2.93;;;;;;;8.33;100.00;102143.75;6183117;28;20508;-71
2023/10/17 03:15:18;;;;;;;2.73;2.50;;;;;;;8.23;100.00;102137.16;6184054;28;20248;-70
2023/10/17 03:18:39;;;;;;;5.43;3.73;;;;;;;8.24;100.00;102138.91;6185573;28;20242;-71
2023/10/17 03:22:16;;;;;;;6.90;3.00;;;;;;;8.33;100.00;102146.44;6182250;28;20256;-70
2023/10/17 03:25:39;;;;;;;3.47;2.40;;;;;;;8.33;100.00;102144.63;6180273;28;20234;-70
2023/10/17 03:29:00;;;;;;;3.27;2.80;;;;;;;8.26;100.00;102145.06;6179423;28;22767;-70
2023/10/17 03:32:23;;;;;;;2.90;2.20;;;;;;;8.12;100.00;102148.53;6180423;28;20238;-71
2023/10/17 03:36:04;;;;;;;3.97;3.10;;;;;;;8.28;100.00;102149.38;6184580;28;20225;-71
2023/10/17 03:39:27;;;;;;;3.87;2.70;;;;;;;8.27;100.00;102147.66;6176073;28;20222;-71
2023/10/17 03:42:53;;;;;;;3.20;2.37;;;;;;;8.23;100.00;102147.91;6181523;28;20230;-71
2023/10/17 03:46:15;;;;;;;4.70;2.47;;;;;;;8.32;100.00;102152.78;6186151;28;20252;-70
2023/10/17 03:49:37;;;;;;;3.13;2.30;;;;;;;8.53;100.00;102156.88;6179978;28;20449;-70
2023/10/17 03:53:05;;;;;;;21.17;18.50;;;;;;;8.44;100.00;102150.22;6182637;28;20549;-69
2023/10/17 03:56:25;;;;;;;10.20;9.17;;;;;;;8.47;100.00;102154.56;6179008;28;20217;-70
2023/10/17 03:59:52;;;;;;;7.07;3.37;;;;;;;8.37;100.00;102153.34;6184843;28;20225;-70
2023/10/17 04:03:21;;;;;;;3.77;2.73;;;;;;;8.39;100.00;102151.44;6178243;28;20646;-70
2023/10/17 04:06:43;;;;;;;4.77;4.33;;;;;;;8.35;100.00;102158.81;6180151;28;20221;-70
2023/10/17 04:10:19;;;;;;;12.43;11.13;;;;;;;8.36;100.00;102157.88;6184024;28;20238;-70
2023/10/17 04:13:40;;;;;;;6.07;4.23;;;;;;;8.22;100.00;102154.25;6180037;28;20237;-71
2023/10/17 04:17:03;;;;;;;11.33;8.20;;;;;;;8.38;100.00;102157.78;6179383;28;20266;-71
2023/10/17 04:20:25;;;;;;;18.13;16.17;;;;;;;8.40;100.00;102150.50;6182031;28;20237;-71
2023/10/17 04:23:49;;;;;;;7.67;6.57;;;;;;;8.42;100.00;102157.50;6178548;28;20225;-70
2023/10/17 04:27:22;;;;;;;18.63;16.80;;;;;;;8.58;100.00;102152.06;6179309;28;20237;-70
2023/10/17 04:30:47;;;;;;;5.50;5.00;;;;;;;8.58;100.00;102150.25;6185218;28;20324;-71
2023/10/17 04:34:14;;;;;;;5.43;4.10;;;;;;;8.49;100.00;102149.97;6180972;28;20225;-71
2023/10/17 04:37:38;;;;;;;3.30;2.73;;;;;;;8.42;100.00;102143.22;6179558;28;20249;-70
2023/10/17 04:41:17;;;;;;;4.23;2.37;;;;;;;8.32;100.00;102150.09;6181417;28;20269;-70
2023/10/17 04:44:50;;;;;;;3.13;2.60;;;;;;;8.23;100.00;102145.22;6172721;28;20233;-71
2023/10/17 04:48:10;;;;;;;5.83;3.03;;;;;;;8.24;100.00;102142.44;6178900;28;20233;-70
2023/10/17 04:51:38;;;;;;;2.67;2.43;;;;;;;8.28;100.00;102140.47;6181137;28;20237;-68
2023/10/17 04:55:11;;;;;;;3.33;2.87;;;;;;;8.30;100.00;102138.56;6172925;28;20316;-72
2023/10/17 04:58:31;;;;;;;6.77;3.33;;;;;;;8.32;100.00;102131.28;6183923;28;20328;-72
2023/10/17 05:02:12;;;;;;;8.13;4.37;;;;;;;8.36;100.00;102136.38;6184766;28;20647;-71
2023/10/17 05:05:45;;;;;;;5.07;2.93;;;;;;;8.44;100.00;102141.28;6185581;28;20553;-71
2023/10/17 06:16:49;;;;;;;4.23;2.60;;;;;;;8.53;100.00;102146.97;6188801;28;20619;-71
2023/10/17 06:18:56;;;;;;;7.53;4.97;;;;;;;8.83;100.00;102177.38;6181300;28;20253;-73
2023/10/17 06:23:23;;;;;;;5.37;3.90;;;;;;;8.83;100.00;102181.91;6186835;28;20550;-72
2023/10/17 06:33:42;;;;;;;5.63;4.43;;;;;;;9.00;100.00;102180.88;6179344;28;20628;-72
2023/10/17 06:37:07;;;;;;;6.10;4.37;;;;;;;9.08;100.00;102184.81;6180539;28;20226;-72
2023/10/17 06:40:33;;;;;;;4.73;4.17;;;;;;;9.15;100.00;102191.56;6187975;28;20222;-73
2023/10/17 06:43:57;;;;;;;6.60;5.03;;;;;;;9.11;100.00;102191.84;6175679;28;20617;-72
2023/10/17 06:47:21;;;;;;;8.17;5.03;;;;;;;9.22;100.00;102198.28;6184663;28;20233;-73
2023/10/17 06:54:24;;;;;;;7.47;4.00;;;;;;;9.25;100.00;102198.09;6167499;28;20230;-72
2023/10/17 06:57:50;;;;;;;10.00;6.40;;;;;;;9.22;100.00;102194.75;6180655;28;20237;-71
2023/10/17 07:01:24;;;;;;;11.33;5.10;;;;;;;9.20;100.00;102205.56;6182200;28;20503;-72
2023/10/17 07:04:46;;;;;;;7.67;4.57;;;;;;;9.26;100.00;102201.66;6187202;28;20234;-72
2023/10/17 07:08:13;;;;;;;9.53;4.57;;;;;;;9.15;100.00;102212.22;6178811;28;20230;-71
2023/10/17 07:11:36;;;;;;;7.60;4.67;;;;;;;9.23;100.00;102207.22;6184566;28;20245;-72
2023/10/17 07:15:00;;;;;;;6.10;5.00;;;;;;;9.34;100.00;102205.59;6183096;28;20222;-72
2023/10/17 07:22:06;;;;;;;9.63;5.50;;;;;;;9.47;100.00;102206.53;6188179;28;20234;-72
2023/10/17 07:25:31;;;;;;;9.87;6.20;;;;;;;9.39;100.00;102210.69;6186034;28;20566;-72
2023/10/17 07:28:52;;;;;;;10.17;6.07;;;;;;;9.46;100.00;102207.53;6185920;28;20233;-72
2023/10/17 07:32:17;;;;;;;7.97;4.97;;;;;;;9.58;100.00;102204.06;6181056;28;20234;-72
2023/10/17 07:35:38;;;;;;;6.73;4.57;;;;;;;9.79;100.00;102200.94;6188983;28;20241;-72
2023/10/17 07:38:59;;;;;;;5.73;4.40;;;;;;;9.74;100.00;102203.94;6184774;28;20312;-72
2023/10/17 07:42:31;;;;;;;5.83;4.00;;;;;;;9.83;100.00;102205.16;6180873;28;20230;-74
2023/10/17 07:45:56;;;;;;;5.23;3.67;;;;;;;9.88;100.00;102198.53;6188398;28;20226;-72
2023/10/17 07:49:25;;;;;;;5.47;3.63;;;;;;;9.76;100.00;102196.63;6169038;28;20569;-71
2023/10/17 07:52:50;;;;;;;5.90;3.80;;;;;;;9.72;100.00;102197.78;6185155;28;20233;-73
2023/10/17 07:56:19;;;;;;;8.00;3.53;;;;;;;9.97;100.00;102197.91;6181564;28;20506;-73
2023/10/17 07:59:50;;;;;;;5.87;3.93;;;;;;;9.88;100.00;102190.47;6184022;28;20229;-73
2023/10/17 08:03:14;;;;;;;6.03;3.20;;;;;;;9.87;100.00;102190.53;6180095;28;20332;-72
2023/10/17 08:06:37;;;;;;;5.10;3.00;;;;;;;9.90;100.00;102196.59;6185443;28;20777;-73
2023/10/17 08:09:57;;;;;;;5.27;3.30;;;;;;;10.24;100.00;102198.00;6186181;28;20233;-73
2023/10/17 08:13:19;;;;;;;7.03;3.83;;;;;;;10.31;100.00;102197.47;6180244;28;20234;-72
2023/10/17 08:16:40;;;;;;;3.83;3.33;;;;;;;10.64;100.00;102199.72;6188224;28;20249;-72
2023/10/17 08:20:09;;;;;;;6.37;3.83;;;;;;;10.57;100.00;102202.94;6185120;28;20238;-72
2023/10/17 08:23:30;;;;;;;6.10;2.37;;;;;;;10.57;100.00;102201.13;6183823;28;20225;-71
2023/10/17 08:27:12;;;;;;;2.57;1.63;;;;;;;10.85;100.00;102200.09;6185943;28;20218;-72
2023/10/17 08:30:38;;;;;;;4.20;2.53;;;;;;;10.69;100.00;102202.97;6184970;28;20222;-72
2023/10/17 08:34:09;;;;;;;1.50;1.40;;;;;;;10.63;100.00;102198.00;6185800;28;20320;-72
2023/10/17 08:37:30;;;;;;;5.73;2.90;;;;;;;10.74;100.00;102198.16;6185167;28;20221;-72
2023/10/17 08:40:54;;;;;;;2.13;1.73;;;;;;;10.88;100.00;102199.88;6183971;28;20226;-72
2023/10/17 08:44:15;;;;;;;2.90;2.23;;;;;;;11.18;100.00;102189.69;6189596;28;20238;-72
2023/10/17 08:47:37;;;;;;;3.33;2.17;;;;;;;11.86;100.00;102190.16;6183782;28;20237;-72
2023/10/17 08:50:59;;;;;;;4.07;1.90;;;;;;;12.10;100.00;102184.78;6184228;28;20225;-71
2023/10/17 08:54:20;;;;;;;1.60;1.50;;;;;;;11.62;100.00;102187.34;6185494;28;20316;-72
2023/10/17 08:57:42;;;;;;;2.53;1.60;;;;;;;11.53;100.00;102184.47;6185162;28;20253;-73
2023/10/17 09:01:11;;;;;;;1.67;1.50;;;;;;;11.71;100.00;102193.97;6180476;28;20237;-73
2023/10/17 09:04:33;;;;;;;2.17;1.60;;;;;;;11.62;100.00;102189.22;6185163;28;20995;-72
2023/10/17 09:07:56;;;;;;;3.03;1.83;;;;;;;11.74;100.00;102191.06;6186875;28;20225;-72
2023/10/17 09:11:29;;;;;;;3.20;1.67;;;;;;;11.88;100.00;102190.91;6177358;28;20226;-71
2023/10/17 09:14:52;;;;;;;2.47;1.77;;;;;;;12.02;99.32;102197.00;6185359;28;20602;-73
2023/10/17 09:18:13;;;;;;;10.40;1.57;;;;;;;12.29;99.06;102188.69;6180150;28;20543;-72
2023/10/17 09:21:35;;;;;;;1.90;1.70;;;;;;;12.17;96.82;102195.00;6186400;28;20237;-73
2023/10/17 09:24:56;;;;;;;2.40;1.53;;;;;;;11.46;97.94;102193.97;6184562;28;20241;-72
2023/10/17 09:28:20;;;;;;;0.90;0.80;;;;;;;11.09;98.39;102193.00;6182311;28;20261;-73
2023/10/17 09:31:45;;;;;;;2.93;1.80;;;;;;;12.29;96.42;102188.69;6182384;28;20230;-72
2023/10/17 09:35:11;;;;;;;1.17;0.80;;;;;;;12.93;88.30;102183.78;6189688;28;20234;-73
2023/10/17 09:38:33;;;;;;;4.20;1.10;;;;;;;12.90;86.54;102190.28;6186397;28;20226;-72
2023/10/17 09:41:54;;;;;;;3.27;1.53;;;;;;;12.96;87.27;102183.53;6186883;28;20748;-72
2023/10/17 09:45:16;;;;;;;1.60;1.37;;;;;;;13.16;83.47;102183.72;6182437;28;20229;-72
2023/10/17 09:48:42;;;;;;;2.63;1.13;;;;;;;12.50;81.18;102189.78;6184418;28;20241;-73
2023/10/17 09:52:09;;;;;;;1.63;0.83;;;;;;;11.87;79.03;102197.25;6186193;28;20233;-72
2023/10/17 09:55:31;;;;;;;2.33;1.73;;;;;;;12.52;79.43;102195.06;6188498;28;20233;-72
2023/10/17 09:58:56;;;;;;;2.90;1.40;;;;;;;13.11;78.83;102193.19;6185670;28;20320;-73
2023/10/17 10:02:20;;;;;;;4.57;1.47;;;;;;;12.71;78.00;102189.97;6186117;28;20222;-73
2023/10/17 10:05:43;;;;;;;5.03;1.60;;;;;;;12.89;78.53;102193.13;6188492;28;20554;-72
2023/10/17 10:09:26;;;;;;;2.20;1.10;;;;;;;13.26;80.60;102192.00;6188061;28;20237;-73
2023/10/17 10:12:58;;;;;;;5.40;1.50;;;;;;;13.88;78.01;102190.50;6188003;28;20253;-73
2023/10/17 10:16:19;;;;;;;1.23;1.03;;;;;;;13.23;75.92;102201.22;6184794;28;20234;-72
2023/10/17 10:20:04;;;;;;;1.63;0.83;;;;;;;13.10;78.82;102189.63;6187010;28;20237;-73
2023/10/17 10:23:34;;;;;;;3.50;1.47;;;;;;;12.82;81.37;102196.31;6186619;28;20222;-74
2023/10/17 10:27:18;;;;;;;3.40;2.10;;;;;;;13.65;80.20;102196.94;6187674;28;20257;-72
2023/10/17 10:30:43;;;;;;;1.80;1.30;;;;;;;13.51;77.83;102178.22;6190278;28;20299;-73
2023/10/17 10:34:04;;;;;;;1.60;1.50;;;;;;;13.29;81.48;102181.78;6185025;28;20237;-72
2023/10/17 10:37:25;;;;;;;3.37;1.93;;;;;;;13.77;80.04;102174.25;6190532;28;20230;-71
2023/10/17 10:40:47;;;;;;;2.03;1.10;;;;;;;14.95;76.81;102164.25;6185125;28;20234;-72
2023/10/17 10:44:08;;;;;;;2.90;1.10;;;;;;;15.93;71.38;102163.59;6190974;28;20320;-72
2023/10/17 10:47:31;;;;;;;1.20;0.97;;;;;;;17.07;65.38;102153.75;6194919;28;20230;-71
2023/10/17 10:50:55;;;;;;;1.23;0.90;;;;;;;16.01;62.33;102152.88;6186626;28;20237;-72
2023/10/17 10:54:17;;;;;;;2.03;0.90;;;;;;;16.05;60.89;102153.47;6187090;28;20329;-72
2023/10/17 10:57:39;;;;;;;1.53;1.20;;;;;;;16.46;59.36;102153.22;6182421;28;20575;-71
2023/10/17 11:01:02;;;;;;;2.38;1.45;;;;;;;17.10;56.15;102134.41;6189021;28;20245;-72
2023/10/17 11:04:24;;;;;;;4.80;1.60;;;;;;;17.27;55.52;102134.47;6184093;28;20361;-75
2023/10/17 11:07:45;;;;;;;2.65;0.73;;;;;;;21.42;45.43;102122.78;6180662;28;20817;-73
2023/10/17 11:11:09;;;;;;;1.42;1.30;;;;;;;21.94;41.05;102120.41;6177338;28;20599;-72
2023/10/17 11:14:31;;;;;;;1.77;0.90;;;;;;;23.06;37.83;102117.84;6184698;28;20262;-72
2023/10/17 11:17:59;;;;;;;1.70;0.90;;;;;;;21.95;37.05;102115.75;6183552;28;20229;-71
2023/10/17 11:21:22;;;;;;;1.42;1.20;;;;;;;23.59;36.83;102116.78;6186241;28;20234;-71
2023/10/17 11:24:44;;;;;;;2.53;1.08;;;;;;;23.50;34.95;102115.16;6185381;28;20536;-71
2023/10/17 11:28:07;;;;;;;1.65;1.27;;;;;;;24.69;33.06;102113.63;6185059;28;20324;-71
2023/10/17 11:31:31;;;;;;;2.35;1.02;;;;;;;23.23;35.53;102113.88;6199442;28;20238;-72
2023/10/17 11:35:04;;;;;;;1.88;0.77;;;;;;;21.89;35.16;102113.72;6187864;28;20233;-71
2023/10/17 11:38:33;;;;;;;0.85;0.80;;;;;;;22.00;36.28;102116.94;6181297;28;20230;-73
2023/10/17 11:41:54;;;;;;;2.22;1.73;;;;;;;23.62;35.41;102102.59;6182392;28;20229;-72
2023/10/17 11:45:25;;;;;;;2.10;0.60;;;;;;;25.27;32.57;102099.47;6185342;28;20234;-71
2023/10/17 11:48:48;;;;;;;0.60;0.60;;;;;;;26.86;31.13;102091.56;6181043;28;20325;-71
2023/10/17 11:52:12;;;;;;;1.08;0.80;;;;;;;27.98;29.46;102093.03;6180310;28;20234;-73
2023/10/17 11:55:41;;;;;;;1.42;0.57;;;;;;;27.14;29.40;102092.16;6184646;28;20230;-73
2023/10/17 11:59:03;;;;;;;1.45;0.95;;;;;;;26.11;30.63;102089.09;6182904;28;20269;-72
2023/10/17 12:02:24;;;;;;;1.20;0.43;;;;;;;28.64;28.00;102085.19;6177995;28;20222;-71
2023/10/17 12:05:47;;;;;;;1.92;0.70;;;;;;;28.83;28.80;102086.91;6186629;28;20227;-72
2023/10/17 12:09:18;;;;;;;1.45;0.80;;;;;;;29.60;28.19;102080.78;6184755;28;20226;-71
2023/10/17 12:12:39;;;;;;;2.45;0.68;;;;;;;29.12;27.15;102083.44;6186573;28;20233;-72
2023/10/17 12:16:08;;;;;;;1.00;0.55;;;;;;;26.65;29.68;102091.72;6189333;28;20237;-72
2023/10/17 12:19:29;;;;;;;3.15;1.10;;;;;;;22.67;34.39;102093.28;6182168;28;20245;-73
2023/10/17 12:22:52;;;;;;;1.92;0.65;;;;;;;22.36;36.57;102097.97;6185216;28;20226;-72
2023/10/17 12:26:14;;;;;;;3.88;1.80;;;;;;;24.03;35.03;102083.63;6184679;28;20651;-71
2023/10/17 12:29:35;;;;;;;0.75;0.57;;;;;;;21.79;36.73;102085.59;6186729;28;20245;-72
2023/10/17 12:32:56;;;;;;;1.55;1.10;;;;;;;21.49;38.53;102085.38;6182563;28;20233;-72
2023/10/17 12:36:19;;;;;;;0.63;0.63;;;;;;;22.16;37.41;102081.13;6186802;28;20217;-72
2023/10/17 12:39:42;;;;;;;1.33;0.93;;;;;;;21.37;38.24;102072.22;6188680;28;20279;-72
2023/10/17 12:43:03;;;;;;;0.45;0.45;;;;;;;20.68;38.77;102073.75;6178611;28;20230;-72
2023/10/17 12:46:24;;;;;;;2.78;1.42;;;;;;;21.24;38.93;102064.56;6183739;28;20254;-73
2023/10/17 12:49:46;;;;;;;0.90;0.82;;;;;;;21.00;39.15;102059.13;6184738;28;20777;-72
2023/10/17 12:53:07;;;;;;;0.73;0.73;;;;;;;19.61;39.61;102057.47;6181982;28;20234;-73
2023/10/17 12:56:31;;;;;;;3.08;0.75;;;;;;;19.63;42.23;102058.19;6186503;28;20800;-73
2023/10/17 12:59:51;;;;;;;0.70;0.70;;;;;;;18.31;43.53;102053.00;6179851;28;20506;-73
2023/10/17 13:03:12;;;;;;;1.52;0.68;;;;;;;18.50;43.94;102046.56;6184140;28;20230;-72
2023/10/17 13:06:34;;;;;;;2.45;0.80;;;;;;;18.74;44.97;102043.13;6184286;28;20862;-72
2023/10/17 13:09:55;;;;;;;1.15;0.90;;;;;;;18.23;44.97;102046.66;6189425;28;20222;-72
2023/10/17 13:13:17;;;;;;;5.95;5.13;;;;;;;17.96;45.58;102038.56;6174027;28;20498;-73
2023/10/17 13:16:40;;;;;;;2.28;1.10;;;;;;;18.61;44.80;102034.53;6190931;28;20630;-72
2023/10/17 13:20:07;;;;;;;1.50;1.00;;;;;;;19.78;42.75;102034.59;6184214;28;20230;-72
2023/10/17 13:23:27;;;;;;;1.15;0.60;;;;;;;19.11;42.90;102032.78;6186280;28;20260;-72
2023/10/17 13:26:49;;;;;;;0.98;0.70;;;;;;;18.20;45.82;102031.44;6187769;28;20324;-73
2023/10/17 13:30:12;;;;;;;1.65;1.17;;;;;;;17.88;46.72;102030.25;6188024;28;20313;-72
2023/10/17 13:33:32;;;;;;;0.73;0.60;;;;;;;17.20;48.67;102037.97;6188025;28;20313;-73
2023/10/17 13:36:53;;;;;;;0.60;0.60;;;;;;;17.08;49.74;102036.47;6185335;28;20238;-72
2023/10/17 13:40:14;;;;;;;18.45;15.23;;;;;;;16.89;50.19;102033.81;6190116;28;20583;-72
2023/10/17 13:43:36;;;;;;;5.65;5.15;;;;;;;17.38;49.25;102038.00;6186038;28;20238;-71
2023/10/17 13:46:58;;;;;;;1.27;0.90;;;;;;;17.32;48.86;102036.75;6187327;28;20257;-72
2023/10/17 13:50:20;;;;;;;0.60;0.60;;;;;;;16.70;49.47;102029.28;6190316;28;20254;-72
2023/10/17 13:53:43;;;;;;;3.05;0.90;;;;;;;16.23;49.50;102032.06;6178125;28;20234;-72
2023/10/17 13:57:06;;;;;;;0.98;0.73;;;;;;;15.38;50.10;102036.34;6183050;28;20937;-72
2023/10/17 14:00:36;;;;;;;1.60;0.50;;;;;;;15.50;51.59;102029.84;6181481;28;20280;-72
2023/10/17 14:03:59;;;;;;;0.55;0.55;;;;;;;15.29;52.35;102024.44;6182997;28;20500;-71
2023/10/17 14:07:20;;;;;;;0.97;0.77;;;;;;;15.27;52.50;102018.28;6181546;28;20734;-72
2023/10/17 14:10:43;;;;;;;3.93;1.37;;;;;;;15.06;53.79;102020.25;6180346;28;20230;-73
2023/10/17 14:14:04;;;;;;;0.97;0.60;;;;;;;15.59;63.47;102005.38;6175875;28;20230;-75
2023/10/17 14:17:25;;;;;;;1.70;0.67;;;;;;;15.76;55.43;102009.28;6184999;28;20230;-73
2023/10/17 14:24:29;;;;;;;2.90;1.70;;;;;;;15.62;58.90;101993.38;6182441;28;20305;-73
2023/10/17 14:27:50;;;;;;;2.23;1.27;;;;;;;18.49;49.96;101986.63;6184236;28;20708;-71
2023/10/17 14:31:11;;;;;;;1.80;1.43;;;;;;;20.87;42.92;101976.56;6189834;28;20241;-73
2023/10/17 14:34:32;;;;;;;2.53;1.13;;;;;;;21.46;41.09;101962.25;6183588;28;20763;-73
2023/10/17 14:37:54;;;;;;;1.65;0.77;;;;;;;21.93;40.76;101970.38;6186242;28;20615;-73
2023/10/17 14:41:16;;;;;;;0.70;0.70;;;;;;;20.58;41.42;101971.66;6183488;28;20246;-73
2023/10/17 14:44:37;;;;;;;1.90;0.75;;;;;;;19.68;42.83;101963.59;6184194;28;20241;-74
2023/10/17 14:47:59;;;;;;;1.38;0.70;;;;;;;19.45;42.50;101956.19;6180584;28;20373;-74
2023/10/17 14:51:20;;;;;;;0.63;0.63;;;;;;;19.62;43.53;101956.06;6174686;28;20233;-75
2023/10/17 14:54:43;;;;;;;1.05;1.05;;;;;;;19.16;43.69;101956.59;6185544;28;20616;-75
2023/10/17 14:58:04;;;;;;;1.10;0.98;;;;;;;17.76;46.71;101963.31;6175414;28;20235;-73
2023/10/17 15:01:26;;;;;;;1.65;0.70;;;;;;;16.09;49.14;101962.59;6184495;28;20357;-73
2023/10/17 15:04:47;;;;;;;0.90;0.70;;;;;;;14.87;54.13;101957.72;6177175;28;20237;-73
2023/10/17 15:08:11;;;;;;;0.80;0.70;;;;;;;14.52;59.92;101966.25;6178283;28;20237;-74
2023/10/17 15:11:33;;;;;;;0.73;0.70;;;;;;;14.18;61.84;101965.59;6182954;28;20225;-74
2023/10/17 15:14:55;;;;;;;1.30;0.63;;;;;;;13.96;60.19;101960.28;6183104;28;20229;-73
2023/10/17 15:18:16;;;;;;;0.70;0.70;;;;;;;13.74;59.61;101949.56;6174895;28;20544;-73
2023/10/17 15:21:37;;;;;;;1.60;0.60;;;;;;;13.22;60.17;101954.94;6198227;28;20261;-73
2023/10/17 15:24:58;;;;;;;1.63;1.30;;;;;;;13.40;61.24;101962.38;6179547;28;20238;-72
2023/10/17 15:28:20;;;;;;;3.50;1.20;;;;;;;13.56;61.75;101948.41;6177259;28;20332;-73
2023/10/17 15:31:44;;;;;;;3.50;1.33;;;;;;;13.54;63.96;101947.66;6178357;28;20229;-72
2023/10/17 15:35:12;;;;;;;2.33;1.57;;;;;;;13.31;63.50;101951.44;6180832;28;20233;-72
2023/10/17 15:38:34;;;;;;;1.10;0.87;;;;;;;12.95;64.03;101951.75;6185360;28;20225;-73
2023/10/17 15:41:54;;;;;;;1.63;1.20;;;;;;;13.14;64.57;101950.13;6164570;28;20608;-72
2023/10/17 15:45:19;;;;;;;1.80;1.23;;;;;;;13.22;66.47;101954.94;6178072;28;20229;-73
2023/10/17 15:48:42;;;;;;;1.93;0.83;;;;;;;12.87;66.21;101962.34;6179525;28;20249;-74
2023/10/17 15:52:03;;;;;;;1.70;1.27;;;;;;;12.85;66.55;101959.72;6181053;28;20222;-72
2023/10/17 15:55:24;;;;;;;5.67;3.27;;;;;;;12.96;67.19;101961.56;6177964;28;20269;-72
2023/10/17 15:58:46;;;;;;;2.80;2.43;;;;;;;12.98;67.05;101960.47;6180073;28;20237;-73
2023/10/17 16:02:08;;;;;;;1.40;1.30;;;;;;;12.90;70.56;101965.63;6176686;28;20866;-72
2023/10/17 16:05:30;;;;;;;1.10;0.90;;;;;;;12.45;70.53;101972.91;6183245;28;20273;-72
2023/10/17 16:08:51;;;;;;;2.33;1.20;;;;;;;12.56;72.31;101963.91;6172557;28;20225;-72
2023/10/17 16:12:14;;;;;;;2.33;1.83;;;;;;;12.59;75.11;101963.69;6180530;28;22076;-72
2023/10/17 16:15:36;;;;;;;2.40;1.20;;;;;;;12.47;78.43;101957.41;6184557;28;20226;-73
2023/10/17 16:18:58;;;;;;;2.60;1.17;;;;;;;12.49;79.87;101962.69;6179092;28;20690;-71
2023/10/17 16:22:19;;;;;;;2.57;1.90;;;;;;;12.34;80.54;101959.38;6180983;28;20256;-72
2023/10/17 16:25:46;;;;;;;5.07;2.27;;;;;;;12.19;84.44;101960.56;6187578;28;20234;-72
2023/10/17 16:29:06;;;;;;;3.23;1.10;;;;;;;11.95;81.08;101963.31;6177302;28;20237;-72
2023/10/17 16:32:27;;;;;;;3.23;1.90;;;;;;;11.91;82.49;101966.41;6180926;28;20222;-71
2023/10/17 16:35:58;;;;;;;1.77;1.63;;;;;;;11.82;84.10;101964.41;6175855;28;20221;-73
2023/10/17 16:39:20;;;;;;;5.13;2.30;;;;;;;11.93;88.31;101957.16;6173851;28;20237;-71
2023/10/17 16:42:42;;;;;;;3.63;1.93;;;;;;;11.81;90.88;101957.25;6187148;28;20260;-71
2023/10/17 16:46:04;;;;;;;1.80;1.70;;;;;;;11.67;91.70;101952.06;6172025;28;20517;-71
2023/10/17 16:49:25;;;;;;;6.57;2.30;;;;;;;11.66;94.03;101950.31;6164098;28;20238;-70
2023/10/17 16:52:48;;;;;;;2.83;2.17;;;;;;;11.66;95.04;101947.59;6185146;28;20230;-71
2023/10/17 16:56:09;;;;;;;4.37;2.27;;;;;;;11.53;97.77;101946.81;6185211;28;20234;-71
2023/10/17 16:59:30;;;;;;;2.43;1.80;;;;;;;11.42;98.37;101947.63;6185989;28;20221;-71
2023/10/17 17:02:51;;;;;;;3.33;2.30;;;;;;;11.47;99.75;101955.38;6178044;28;20233;-71
2023/10/17 17:06:12;;;;;;;2.90;2.33;;;;;;;11.33;100.00;101967.19;6187702;28;20226;-71
2023/10/17 17:09:36;;;;;;;4.97;2.57;;;;;;;11.30;100.00;101967.44;6182509;28;20256;-71
2023/10/17 17:12:59;;;;;;;2.03;1.63;;;;;;;11.26;100.00;101971.34;6186193;28;20226;-71
2023/10/17 17:16:20;;;;;;;3.83;1.90;;;;;;;11.15;100.00;101976.66;6185626;28;20261;-72